Ext San Salvador, Puerto Rico
Current Conditions -  °F | °C
As of 6:56 PM on Friday 24 Oct 2014 (Local Time) from TJSJ Reporting Station
Few Clouds Few Clouds  
Wind Chill: 85°   Ceiling: Unl
Heat Index: 92°   Visibility: 10mi
Dew Point: 74°   Wind: 6mph
Humidity: 69%   Direction: 130°SE
Pressure: 29.88"   Gusts: NA
Location:  18.4259°N, 66.4717°W
Report Text: TJSJ 242256Z 13005KT 10SM FEW033 29/23 A2988 RMK AO2 SLP116 T02940233
Loading
Personal Weather Stations






























Interactive Weather Map
Tropical Storm Tracking
New forecast layout! Learn more

10-Day Weather Forecast

Advertisements
Track Severe Weather on mobile